Station Historical Data
Daily Summary for May 16, 2017 Units:  English    Metric   Both
« Previous Day
Next Day »
Daily Weekly Monthly Yearly Custom
  High: Low: Average:
Temperature: 89.1 °F 64.0 °F 75.7 °F
Dew Point: 64.9 °F 57.8 °F 60.1 °F
Humidity: 89% 36% 61%
Wind Speed: 1.0mph 0.0mph 0mph
Wind Gust: 3.0mph - -
Wind- - SSE
Pressure: 30.08 in 30.00 in -
Precipitation: 0.00 in    
Historical Graphs
 
 
Tabular Data for May 16, 2017
Time Temperature Dew Point Pressure Wind Wind Speed Wind Gust Humidity Rainfall Rate (Hourly) Conditions
00:00 69.2 °F 60.5 °F 30.01 in Calm     74% 0.00 in SCT
00:15 69.0 °F 60.4 °F 30.01 in Calm     74% 0.00 in SCT
00:30 68.5 °F 60.6 °F 30.01 in Calm     76% 0.00 in SCT
00:45 67.7 °F 60.2 °F 30.01 in Calm     77% 0.00 in SCT
01:00 67.1 °F 60.4 °F 30.02 in Calm     79% 0.00 in SCT
01:15 66.7 °F 60.3 °F 30.02 in Calm     80% 0.00 in SCT
01:30 66.4 °F 60.4 °F 30.02 in Calm     81% 0.00 in SCT
01:45 66.2 °F 60.2 °F 30.01 in Calm     81% 0.00 in SCT
02:00 65.0 °F 58.7 °F 30.01 in Calm     80% 0.00 in SCT
02:15 65.0 °F 58.7 °F 30.01 in Calm     80% 0.00 in SCT
02:30 65.0 °F 58.7 °F 30.00 in Calm     80% 0.00 in SCT
02:45 65.0 °F 58.7 °F 30.00 in Calm     80% 0.00 in SCT
03:00 65.0 °F 58.7 °F 30.00 in Calm     80% 0.00 in SCT
03:15 65.0 °F 58.7 °F 30.00 in Calm     80% 0.00 in SCT
03:30 65.0 °F 58.7 °F 30.00 in Calm     80% 0.00 in SCT
03:45 65.0 °F 58.7 °F 30.00 in Calm     80% 0.00 in SCT
04:00 65.0 °F 58.7 °F 30.01 in Calm     80% 0.00 in SCT
04:15 65.0 °F 58.7 °F 30.01 in Calm     80% 0.00 in SCT
04:30 65.0 °F 58.7 °F 30.01 in Calm     80% 0.00 in SCT
04:45 65.0 °F 58.7 °F 30.01 in Calm     80% 0.00 in SCT
05:00 65.0 °F 58.7 °F 30.01 in Calm     80% 0.00 in SCT
05:15 65.0 °F 58.7 °F 30.02 in Calm     80% 0.00 in SCT
05:30 65.0 °F 58.7 °F 30.02 in Calm     80% 0.00 in SCT
05:45 65.0 °F 58.7 °F 30.03 in Calm     80% 0.00 in SCT
06:00 65.0 °F 58.7 °F 30.04 in Calm     80% 0.00 in SCT
06:15 65.0 °F 58.7 °F 30.05 in Calm     80% 0.00 in SCT
06:30 65.0 °F 58.7 °F 30.05 in Calm     80% 0.00 in SCT
06:45 65.0 °F 58.7 °F 30.05 in Calm     80% 0.00 in SCT
07:00 65.0 °F 58.7 °F 30.05 in Calm     80% 0.00 in SCT
07:15 65.0 °F 58.7 °F 30.06 in Calm     80% 0.00 in SCT
07:30 65.0 °F 58.7 °F 30.06 in Calm     80% 0.00 in SCT
07:45 65.0 °F 58.7 °F 30.07 in Calm     80% 0.00 in SCT
08:00 64.0 °F 60.7 °F 30.07 in Calm     89% 0.00 in SCT
08:15 65.3 °F 61.7 °F 30.07 in Calm     88% 0.00 in SCT
08:30 66.8 °F 62.5 °F 30.08 in Calm     86% 0.00 in SCT
08:45 68.5 °F 62.8 °F 30.08 in Calm     82% 0.00 in SCT
09:00 70.3 °F 63.1 °F 30.08 in Calm     78% 0.00 in SCT
09:15 71.9 °F 63.1 °F 30.08 in Calm     74% 0.00 in SCT
09:30 73.7 °F 64.9 °F 30.08 in Calm     74% 0.00 in SCT
09:45 75.9 °F 64.1 °F 30.08 in Calm     67% 0.00 in SCT
10:00 77.4 °F 63.8 °F 30.08 in Calm   1.0 mph 63% 0.00 in SCT
10:15 79.3 °F 63.7 °F 30.08 in Calm   1.0 mph 59% 0.00 in SCT
10:30 79.8 °F 62.2 °F 30.08 in Calm   2.0 mph 55% 0.00 in SCT
10:45 81.2 °F 63.5 °F 30.08 in Calm   1.0 mph 55% 0.00 in SCT
11:00 81.9 °F 62.5 °F 30.08 in Calm   1.0 mph 52% 0.00 in SCT
11:15 82.3 °F 61.8 °F 30.08 in Calm   1.0 mph 50% 0.00 in SCT
11:30 82.4 °F 61.3 °F 30.08 in Calm   2.0 mph 49% 0.00 in SCT
11:45 83.3 °F 62.1 °F 30.08 in Calm   1.0 mph 49% 0.00 in SCT
12:00 83.7 °F 61.4 °F 30.08 in Calm   2.0 mph 47% 0.00 in SCT
12:15 84.2 °F 59.9 °F 30.08 in SSE 1.0 mph 3.0 mph 44% 0.00 in SCT
12:30 85.5 °F 59.8 °F 30.08 in Calm   2.0 mph 42% 0.00 in SCT
12:45 86.5 °F 60.0 °F 30.07 in West 1.0 mph 2.0 mph 41% 0.00 in SCT
13:00 87.9 °F 63.2 °F 30.07 in Calm   1.0 mph 44% 0.00 in SCT
13:15 88.4 °F 59.6 °F 30.06 in Calm   2.0 mph 38% 0.00 in SCT
13:30 88.2 °F 57.8 °F 30.06 in NE 1.0 mph 2.0 mph 36% 0.00 in SCT
13:45 88.8 °F 58.4 °F 30.06 in Calm   2.0 mph 36% 0.00 in SCT
14:00 89.1 °F 60.9 °F 30.06 in Calm   2.0 mph 39% 0.00 in SCT
14:15 88.0 °F 59.9 °F 30.06 in Calm   2.0 mph 39% 0.00 in SCT
14:30 88.1 °F 59.3 °F 30.05 in Calm   3.0 mph 38% 0.00 in SCT
14:45 87.7 °F 60.4 °F 30.05 in Calm   2.0 mph 40% 0.00 in SCT
15:00 87.4 °F 59.4 °F 30.04 in Calm   2.0 mph 39% 0.00 in SCT
15:15 87.7 °F 61.1 °F 30.04 in Calm   2.0 mph 41% 0.00 in SCT
15:30 87.4 °F 60.8 °F 30.03 in Calm   2.0 mph 41% 0.00 in SCT
15:45 86.6 °F 61.4 °F 30.03 in Calm     43% 0.00 in SCT
16:00 86.4 °F 59.9 °F 30.02 in Calm   1.0 mph 41% 0.00 in SCT
16:15 86.5 °F 61.4 °F 30.02 in Calm   1.0 mph 43% 0.00 in SCT
16:30 87.0 °F 58.3 °F 30.02 in Calm   2.0 mph 38% 0.00 in SCT
16:45 86.9 °F 58.2 °F 30.01 in Calm   2.0 mph 38% 0.00 in SCT
17:00 87.4 °F 58.0 °F 30.01 in Calm   1.0 mph 37% 0.00 in SCT
17:15 88.8 °F 60.7 °F 30.01 in Calm   3.0 mph 39% 0.00 in SCT
17:30 88.3 °F 60.9 °F 30.01 in Calm     40% 0.00 in SCT
17:45 87.5 °F 59.5 °F 30.01 in Calm   1.0 mph 39% 0.00 in SCT
18:00 86.6 °F 58.7 °F 30.01 in Calm   1.0 mph 39% 0.00 in SCT
18:15 87.0 °F 58.3 °F 30.01 in Calm   1.0 mph 38% 0.00 in SCT
18:30 85.7 °F 59.2 °F 30.01 in Calm   1.0 mph 41% 0.00 in SCT
18:45 84.2 °F 59.9 °F 30.01 in Calm   1.0 mph 44% 0.00 in SCT
19:00 83.2 °F 59.7 °F 30.01 in Calm   1.0 mph 45% 0.00 in SCT
19:15 82.6 °F 59.8 °F 30.01 in Calm   1.0 mph 46% 0.00 in SCT
19:30 82.1 °F 58.7 °F 30.01 in Calm     45% 0.00 in SCT
19:45 81.5 °F 59.9 °F 30.01 in Calm     48% 0.00 in SCT
20:00 80.6 °F 59.6 °F 30.01 in Calm     49% 0.00 in SCT
20:15 79.9 °F 59.6 °F 30.01 in Calm     50% 0.00 in SCT
20:30 79.0 °F 59.4 °F 30.02 in Calm     51% 0.00 in SCT
20:45 78.1 °F 60.1 °F 30.02 in Calm     54% 0.00 in SCT
21:00 76.9 °F 60.0 °F 30.02 in Calm     56% 0.00 in SCT
21:15 75.9 °F 59.6 °F 30.02 in Calm     57% 0.00 in SCT
21:30 75.1 °F 59.3 °F 30.02 in Calm     58% 0.00 in SCT
21:45 74.4 °F 59.6 °F 30.03 in Calm     60% 0.00 in SCT
22:00 73.9 °F 59.2 °F 30.03 in Calm     60% 0.00 in SCT
22:15 73.4 °F 59.1 °F 30.03 in Calm     61% 0.00 in SCT
22:30 72.7 °F 59.0 °F 30.04 in Calm     62% 0.00 in SCT
22:45 72.4 °F 58.6 °F 30.04 in Calm     62% 0.00 in SCT
23:00 72.2 °F 60.6 °F 30.04 in Calm     67% 0.00 in SCT
23:15 71.9 °F 59.9 °F 30.04 in Calm     66% 0.00 in SCT
23:30 71.6 °F 60.9 °F 30.04 in Calm     69% 0.00 in SCT
23:45 71.3 °F 60.6 °F 30.04 in Calm     69% 0.00 in SCT
Piedmont Bend
Compliments of Weather Underground - 4 mb